Time;durP1;ratioP1;P1;durP2;ratioP2;P2;SDS_P1;SDS_P2;PMS_P1;PMS_P2;Temp;Humidity;BMP_temperature;BMP_pressure;BME280_temperature;BME280_humidity;BME280_pressure;Samples;Min_cycle;Max_cycle;Signal;HPM_P1;HPM_P2
2021/03/14 00:01:58;;;;;;;0.77;0.77;;;8.80;35.60;;;;;;10498867;28;20672;-69
2021/03/14 00:07:01;;;;;;;0.90;0.90;;;8.80;36.00;;;;;;10500767;28;20236;-69
2021/03/14 00:12:05;;;;;;;1.30;0.70;;;8.80;35.80;;;;;;10495063;28;20232;-69
2021/03/14 00:17:08;;;;;;;1.00;0.90;;;8.80;35.90;;;;;;10492046;28;20668;-69
2021/03/14 00:22:11;;;;;;;2.60;0.93;;;8.70;36.10;;;;;;10505056;28;20224;-69
2021/03/14 00:27:13;;;;;;;0.80;0.80;;;8.70;36.00;;;;;;10498808;28;20772;-69
2021/03/14 00:32:17;;;;;;;0.93;0.83;;;8.70;35.90;;;;;;10502524;28;20232;-69
2021/03/14 00:37:19;;;;;;;0.80;0.80;;;8.60;36.40;;;;;;10505887;28;20700;-69
2021/03/14 00:42:21;;;;;;;1.90;0.80;;;8.60;36.50;;;;;;10506229;28;20232;-69
2021/03/14 00:47:25;;;;;;;0.80;0.80;;;8.50;36.40;;;;;;10500729;28;20240;-69
2021/03/14 00:52:28;;;;;;;0.73;0.73;;;8.50;37.10;;;;;;10496036;28;20231;-69
2021/03/14 00:57:30;;;;;;;1.37;0.70;;;8.50;37.00;;;;;;10504387;28;20227;-69
2021/03/14 01:02:33;;;;;;;0.70;0.70;;;8.40;37.30;;;;;;10503841;28;20259;-69
2021/03/14 01:07:36;;;;;;;0.63;0.63;;;8.40;37.60;;;;;;10508537;28;20224;-69
2021/03/14 01:12:38;;;;;;;0.60;0.60;;;8.50;37.20;;;;;;10499050;28;20208;-69
2021/03/14 01:17:42;;;;;;;1.00;0.70;;;8.50;37.10;;;;;;10513939;28;20228;-69
2021/03/14 01:22:44;;;;;;;0.73;0.50;;;8.50;37.20;;;;;;10493754;28;20217;-69
2021/03/14 01:27:47;;;;;;;0.57;0.50;;;8.50;37.20;;;;;;10509201;28;20224;-69
2021/03/14 01:32:50;;;;;;;0.60;0.50;;;8.50;37.00;;;;;;10498928;28;20225;-69
2021/03/14 01:37:53;;;;;;;0.60;0.60;;;8.50;37.20;;;;;;10498908;28;20312;-69
2021/03/14 01:42:55;;;;;;;0.50;0.50;;;8.50;36.90;;;;;;10504934;28;20226;-69
2021/03/14 01:48:02;;;;;;;1.03;0.60;;;8.50;36.70;;;;;;10495756;28;20224;-69
2021/03/14 01:53:05;;;;;;;0.93;0.70;;;8.60;37.30;;;;;;10507176;28;20223;-69
2021/03/14 01:58:07;;;;;;;0.70;0.70;;;8.60;36.50;;;;;;10504210;28;20361;-68
2021/03/14 02:03:11;;;;;;;0.77;0.77;;;8.60;36.50;;;;;;10497225;28;20307;-69
2021/03/14 02:08:13;;;;;;;1.10;1.00;;;8.70;36.70;;;;;;10499993;28;20224;-69
2021/03/14 02:13:20;;;;;;;1.20;1.10;;;8.60;36.60;;;;;;10500697;28;20231;-69
2021/03/14 02:18:25;;;;;;;1.03;0.60;;;8.70;37.20;;;;;;10494985;28;20228;-69
2021/03/14 02:23:35;;;;;;;0.43;0.43;;;8.70;37.00;;;;;;10498741;28;20852;-69
2021/03/14 02:28:39;;;;;;;0.60;0.60;;;8.80;37.60;;;;;;10497700;28;20228;-69
2021/03/14 02:33:43;;;;;;;1.30;0.70;;;8.90;37.00;;;;;;10499046;28;20399;-69
2021/03/14 02:38:46;;;;;;;1.20;1.10;;;8.90;36.80;;;;;;10500160;28;20219;-69
2021/03/14 02:43:51;;;;;;;1.07;0.80;;;8.90;36.80;;;;;;10496836;28;20703;-69
2021/03/14 02:48:53;;;;;;;1.33;0.80;;;9.00;37.10;;;;;;10495673;28;20502;-69
2021/03/14 02:53:57;;;;;;;1.03;0.73;;;8.90;36.60;;;;;;10497830;28;20219;-69
2021/03/14 02:59:01;;;;;;;1.07;0.60;;;8.90;36.90;;;;;;10494431;28;20246;-69
2021/03/14 03:04:04;;;;;;;0.70;0.70;;;8.90;37.00;;;;;;10497440;28;20315;-69
2021/03/14 03:09:08;;;;;;;1.03;0.60;;;8.90;36.70;;;;;;10497843;28;20596;-69
2021/03/14 03:14:15;;;;;;;0.67;0.60;;;8.80;37.00;;;;;;10505104;28;20232;-68
2021/03/14 03:19:20;;;;;;;0.70;0.70;;;8.60;37.70;;;;;;10500238;28;20227;-68
2021/03/14 03:24:23;;;;;;;1.27;0.70;;;8.60;37.40;;;;;;10497250;28;20220;-70
2021/03/14 03:29:26;;;;;;;0.97;0.73;;;8.50;37.40;;;;;;10491301;28;20248;-69
2021/03/14 03:34:28;;;;;;;0.57;0.57;;;8.50;37.70;;;;;;10496319;28;20226;-69
2021/03/14 03:39:30;;;;;;;0.80;0.60;;;8.40;37.50;;;;;;10499562;28;20246;-69
2021/03/14 03:44:37;;;;;;;1.03;0.60;;;8.40;37.60;;;;;;10503157;28;20710;-69
2021/03/14 03:49:41;;;;;;;0.57;0.50;;;8.30;38.20;;;;;;10503222;28;20224;-69
2021/03/14 03:54:45;;;;;;;0.50;0.50;;;8.30;37.70;;;;;;10496515;28;20240;-69
2021/03/14 03:59:49;;;;;;;0.57;0.50;;;8.30;37.60;;;;;;10502728;28;20271;-69
2021/03/14 04:04:52;;;;;;;0.50;0.50;;;8.30;38.10;;;;;;10508450;28;20230;-70
2021/03/14 04:09:55;;;;;;;0.53;0.50;;;8.30;37.60;;;;;;10515569;28;20730;-70
2021/03/14 04:14:58;;;;;;;0.43;0.43;;;8.30;37.50;;;;;;10526055;28;20298;-70
2021/03/14 04:20:02;;;;;;;0.50;0.50;;;8.20;37.90;;;;;;10513231;28;20249;-71
2021/03/14 04:25:06;;;;;;;0.60;0.50;;;8.20;37.70;;;;;;10516609;28;20317;-69
2021/03/14 04:30:11;;;;;;;0.50;0.50;;;8.20;37.60;;;;;;10528661;28;20639;-70
2021/03/14 04:35:14;;;;;;;0.60;0.57;;;8.20;37.90;;;;;;10500720;28;20232;-70
2021/03/14 04:40:17;;;;;;;0.47;0.47;;;8.10;37.40;;;;;;10508102;28;20322;-70
2021/03/14 04:45:21;;;;;;;0.40;0.40;;;8.20;37.40;;;;;;10509831;28;20892;-69
2021/03/14 04:50:26;;;;;;;0.93;0.57;;;8.10;37.90;;;;;;10521058;28;20238;-68
2021/03/14 04:55:32;;;;;;;0.40;0.40;;;8.10;37.60;;;;;;10518515;28;20310;-69
2021/03/14 05:00:35;;;;;;;0.90;0.60;;;8.00;37.50;;;;;;10514569;28;20224;-69
2021/03/14 05:05:40;;;;;;;0.50;0.50;;;7.90;37.60;;;;;;10509476;28;20592;-70
2021/03/14 05:10:43;;;;;;;0.40;0.40;;;7.90;37.70;;;;;;10505675;28;20220;-70
2021/03/14 05:15:50;;;;;;;0.40;0.40;;;7.90;37.60;;;;;;10504292;28;20294;-70
2021/03/14 05:20:54;;;;;;;0.57;0.40;;;7.80;38.00;;;;;;10497771;28;20230;-73
2021/03/14 05:25:56;;;;;;;0.93;0.50;;;7.80;37.60;;;;;;10493416;22;20248;-72
2021/03/14 05:31:00;;;;;;;0.50;0.50;;;7.80;37.50;;;;;;10413554;28;20240;-72
2021/03/14 05:36:02;;;;;;;0.60;0.60;;;7.80;37.50;;;;;;10414898;28;20221;-72
2021/03/14 05:41:05;;;;;;;0.70;0.70;;;7.70;37.40;;;;;;10446503;22;20225;-71
2021/03/14 05:46:13;;;;;;;0.60;0.60;;;7.70;37.60;;;;;;10444669;28;20276;-72
2021/03/14 05:51:24;;;;;;;0.50;0.50;;;7.70;37.60;;;;;;10436801;28;20237;-71
2021/03/14 05:56:27;;;;;;;0.77;0.60;;;7.70;37.80;;;;;;10416012;28;20225;-71
2021/03/14 06:01:31;;;;;;;0.90;0.60;;;7.60;37.30;;;;;;10418810;28;20232;-72
2021/03/14 06:06:33;;;;;;;0.60;0.60;;;7.60;37.40;;;;;;10398329;28;20224;-72
2021/03/14 06:11:35;;;;;;;1.30;0.80;;;7.60;37.50;;;;;;10424215;28;20225;-71
2021/03/14 06:16:38;;;;;;;0.60;0.60;;;7.50;37.60;;;;;;10422179;28;20308;-72
2021/03/14 06:21:41;;;;;;;0.83;0.80;;;7.50;37.60;;;;;;10411827;28;20347;-71
2021/03/14 06:26:45;;;;;;;0.80;0.80;;;7.50;37.50;;;;;;10418907;28;20249;-72
2021/03/14 06:31:50;;;;;;;1.33;0.70;;;7.50;37.60;;;;;;10417935;28;20229;-72
2021/03/14 06:36:53;;;;;;;1.80;0.70;;;7.50;37.60;;;;;;10421767;28;20721;-72
2021/03/14 06:41:56;;;;;;;0.93;0.80;;;7.50;37.50;;;;;;10413546;28;20237;-71
2021/03/14 06:47:36;;;;;;;2.10;1.70;;;7.50;37.40;;;;;;10411662;28;20221;-71
2021/03/14 06:52:39;;;;;;;0.70;0.70;;;7.50;38.20;;;;;;10418580;28;20221;-71
2021/03/14 06:57:41;;;;;;;1.00;0.90;;;7.50;37.70;;;;;;10419866;28;20232;-71
2021/03/14 07:02:44;;;;;;;0.73;0.60;;;7.60;37.70;;;;;;10435198;28;20225;-72
2021/03/14 07:07:46;;;;;;;0.67;0.50;;;7.60;37.90;;;;;;10411191;28;20222;-71
2021/03/14 07:12:48;;;;;;;0.70;0.70;;;7.60;38.00;;;;;;10428546;28;20230;-71
2021/03/14 07:17:53;;;;;;;0.70;0.70;;;7.60;37.80;;;;;;10442922;28;20229;-71
2021/03/14 07:23:00;;;;;;;0.60;0.60;;;7.60;37.80;;;;;;10411406;28;20250;-71
2021/03/14 07:28:02;;;;;;;1.10;0.67;;;7.50;38.30;;;;;;10429717;28;20260;-72
2021/03/14 07:33:06;;;;;;;0.97;0.83;;;7.60;38.00;;;;;;10427055;28;20252;-71
2021/03/14 07:38:11;;;;;;;0.80;0.80;;;7.60;37.90;;;;;;10410331;28;20233;-71
2021/03/14 07:43:13;;;;;;;1.13;0.90;;;7.60;38.10;;;;;;10416592;28;20797;-71
2021/03/14 07:48:17;;;;;;;1.20;0.93;;;7.60;37.90;;;;;;10430100;28;20271;-71
2021/03/14 07:53:21;;;;;;;2.10;1.03;;;7.70;38.20;;;;;;10432532;28;20744;-71
2021/03/14 07:58:24;;;;;;;1.27;0.83;;;7.70;38.10;;;;;;10425844;28;20714;-71
2021/03/14 08:03:38;;;;;;;1.33;0.93;;;7.80;38.10;;;;;;10428953;28;20304;-71
2021/03/14 08:08:47;;;;;;;3.20;1.00;;;7.80;38.70;;;;;;10423082;28;20279;-71
2021/03/14 08:13:50;;;;;;;1.30;0.97;;;7.90;39.20;;;;;;10428727;28;20221;-71
2021/03/14 08:18:54;;;;;;;1.17;0.70;;;8.00;38.60;;;;;;10433073;28;20236;-71
2021/03/14 08:23:57;;;;;;;0.80;0.80;;;8.00;38.90;;;;;;10438341;28;20221;-71
2021/03/14 08:29:01;;;;;;;0.80;0.80;;;8.10;38.50;;;;;;10429295;28;20252;-71
2021/03/14 08:34:04;;;;;;;1.27;0.87;;;8.20;38.40;;;;;;10439416;28;20221;-70
2021/03/14 08:39:08;;;;;;;1.13;1.00;;;8.30;38.60;;;;;;10432153;28;20708;-72
2021/03/14 08:44:13;;;;;;;1.10;1.00;;;8.30;38.70;;;;;;10419100;28;21071;-71
2021/03/14 08:49:18;;;;;;;3.07;1.20;;;8.30;38.80;;;;;;10409976;28;20598;-72
2021/03/14 08:54:28;;;;;;;1.33;1.00;;;8.40;39.50;;;;;;10423038;28;20236;-72
2021/03/14 08:59:30;;;;;;;1.30;0.93;;;8.50;39.70;;;;;;10433789;28;20236;-72
2021/03/14 09:04:34;;;;;;;1.50;1.00;;;8.50;38.40;;;;;;10435490;28;20727;-71
2021/03/14 09:09:38;;;;;;;1.20;0.90;;;8.40;38.50;;;;;;10422345;28;20248;-71
2021/03/14 09:14:42;;;;;;;2.97;1.30;;;8.30;38.60;;;;;;10429545;28;20235;-71
2021/03/14 09:19:48;;;;;;;1.80;1.10;;;8.30;38.70;;;;;;10417745;28;20225;-71
2021/03/14 09:24:52;;;;;;;1.40;0.60;;;8.30;38.60;;;;;;10433067;28;20304;-71
2021/03/14 09:29:57;;;;;;;1.83;0.70;;;8.40;38.30;;;;;;10418914;28;20320;-71
2021/03/14 09:35:16;;;;;;;0.70;0.70;;;8.50;38.20;;;;;;10433093;28;20720;-70
2021/03/14 09:40:25;;;;;;;0.83;0.70;;;8.50;39.00;;;;;;10409037;28;20256;-70
2021/03/14 09:45:30;;;;;;;1.20;0.83;;;8.40;38.60;;;;;;10418255;28;20233;-70
2021/03/14 09:50:37;;;;;;;1.40;1.00;;;8.50;38.70;;;;;;10423199;28;20231;-72
2021/03/14 09:55:41;;;;;;;1.10;1.00;;;8.60;38.70;;;;;;10417262;28;20228;-72
2021/03/14 10:00:45;;;;;;;1.67;1.00;;;8.70;38.80;;;;;;10429350;28;20225;-70
2021/03/14 10:05:49;;;;;;;1.60;0.90;;;8.80;37.90;;;;;;10428345;28;20610;-71
2021/03/14 10:10:53;;;;;;;1.07;0.93;;;8.80;37.40;;;;;;10411393;28;20233;-71
2021/03/14 10:15:57;;;;;;;0.90;0.80;;;8.80;37.20;;;;;;10411339;28;20218;-71
2021/03/14 10:21:19;;;;;;;1.77;0.80;;;8.80;37.40;;;;;;10410477;28;20236;-71
2021/03/14 10:26:21;;;;;;;2.60;1.00;;;8.80;37.40;;;;;;10409268;28;20228;-71
2021/03/14 10:31:23;;;;;;;1.17;1.03;;;8.80;37.10;;;;;;10427334;28;20685;-71
2021/03/14 10:36:36;;;;;;;2.00;1.10;;;8.80;37.20;;;;;;10407801;28;20531;-71
2021/03/14 10:41:43;;;;;;;2.10;1.10;;;8.90;36.80;;;;;;10430787;28;20253;-70
2021/03/14 10:46:49;;;;;;;2.17;1.50;;;8.90;36.70;;;;;;10400388;28;20224;-70
2021/03/14 10:51:54;;;;;;;1.40;1.20;;;8.90;36.70;;;;;;10430990;28;20472;-70
2021/03/14 10:56:56;;;;;;;2.13;1.30;;;9.00;37.20;;;;;;10420924;28;20328;-71
2021/03/14 11:02:12;;;;;;;2.70;1.50;;;9.10;37.00;;;;;;10424447;28;20231;-70
2021/03/14 11:07:26;;;;;;;1.47;1.23;;;9.20;35.30;;;;;;10421998;28;20218;-72
2021/03/14 11:12:32;;;;;;;2.67;1.20;;;9.30;35.40;;;;;;10407304;28;20300;-72
2021/03/14 11:17:47;;;;;;;1.20;1.10;;;9.40;35.60;;;;;;10403409;28;20235;-72
2021/03/14 11:22:52;;;;;;;2.60;1.17;;;9.40;35.40;;;;;;10429922;28;20233;-72
2021/03/14 11:27:55;;;;;;;2.57;1.27;;;9.30;35.30;;;;;;10398474;28;20309;-72
2021/03/14 11:32:57;;;;;;;2.63;1.30;;;9.20;35.10;;;;;;10431937;28;20750;-72
2021/03/14 11:38:01;;;;;;;2.47;1.10;;;9.10;35.30;;;;;;10406974;28;20259;-72
2021/03/14 11:43:04;;;;;;;2.07;1.30;;;9.10;35.70;;;;;;10417215;28;20263;-72
2021/03/14 11:48:06;;;;;;;2.07;1.00;;;9.00;35.60;;;;;;10400085;28;20725;-72
2021/03/14 11:53:09;;;;;;;1.33;1.00;;;9.10;35.40;;;;;;10414662;28;20252;-72
2021/03/14 11:58:11;;;;;;;3.40;1.30;;;9.10;35.20;;;;;;10399167;28;20579;-72
2021/03/14 12:03:14;;;;;;;1.87;1.10;;;9.10;35.00;;;;;;10413614;28;20260;-70
2021/03/14 12:08:17;;;;;;;3.27;1.43;;;9.10;35.40;;;;;;10434330;28;20257;-70
2021/03/14 12:13:19;;;;;;;2.10;1.20;;;9.10;35.40;;;;;;10408592;28;20229;-70
2021/03/14 12:18:28;;;;;;;1.97;1.00;;;9.20;34.90;;;;;;10412000;28;20233;-72
2021/03/14 12:23:33;;;;;;;2.90;1.20;;;9.20;34.90;;;;;;10439536;28;20697;-72
2021/03/14 12:28:36;;;;;;;1.50;0.87;;;9.20;35.20;;;;;;10412935;28;20301;-71
2021/03/14 12:33:38;;;;;;;1.20;1.10;;;9.30;35.30;;;;;;10435040;28;20228;-71
2021/03/14 12:38:41;;;;;;;1.00;1.00;;;9.40;34.60;;;;;;10437660;28;20228;-72
2021/03/14 12:43:44;;;;;;;1.33;0.90;;;9.50;33.80;;;;;;10423543;28;20226;-70
2021/03/14 12:48:46;;;;;;;1.23;1.07;;;9.50;34.40;;;;;;10430509;28;20222;-72
2021/03/14 12:53:49;;;;;;;1.60;0.90;;;9.50;34.10;;;;;;10418008;28;20232;-72
2021/03/14 12:58:52;;;;;;;3.43;1.27;;;9.50;34.20;;;;;;10437733;28;20226;-72
2021/03/14 13:03:54;;;;;;;1.03;0.90;;;9.60;34.20;;;;;;10425129;28;20271;-70
2021/03/14 13:08:57;;;;;;;2.47;1.07;;;9.70;34.00;;;;;;10425903;28;20226;-72
2021/03/14 13:13:59;;;;;;;1.87;0.90;;;9.70;33.70;;;;;;10427674;28;20251;-72
2021/03/14 13:19:01;;;;;;;2.20;1.03;;;9.70;33.40;;;;;;10428794;28;20765;-70
2021/03/14 13:24:05;;;;;;;2.33;1.07;;;9.70;33.50;;;;;;10427531;28;20226;-71
2021/03/14 13:29:08;;;;;;;1.10;0.83;;;9.70;33.30;;;;;;10416520;28;20237;-71
2021/03/14 13:34:10;;;;;;;1.20;1.00;;;9.80;33.60;;;;;;10401797;28;20734;-71
2021/03/14 13:39:13;;;;;;;1.80;1.20;;;9.90;33.30;;;;;;10425983;28;20230;-71
2021/03/14 13:44:15;;;;;;;1.50;1.00;;;9.90;33.10;;;;;;10426337;28;20248;-72
2021/03/14 13:49:17;;;;;;;2.57;1.13;;;10.00;31.70;;;;;;10428933;28;20685;-70
2021/03/14 13:54:39;;;;;;;1.20;0.87;;;10.00;32.10;;;;;;10432557;28;20227;-70
2021/03/14 13:59:41;;;;;;;1.60;1.10;;;10.00;31.60;;;;;;10401894;28;20221;-69
2021/03/14 14:04:43;;;;;;;1.10;0.90;;;10.10;32.70;;;;;;10422703;28;20684;-71
2021/03/14 14:09:52;;;;;;;1.57;1.10;;;10.10;32.60;;;;;;10413352;28;20225;-72
2021/03/14 14:14:55;;;;;;;2.20;1.10;;;10.00;32.50;;;;;;10420617;28;20618;-70
2021/03/14 14:19:57;;;;;;;2.73;1.57;;;9.80;33.40;;;;;;10406506;28;20937;-70
2021/03/14 14:25:01;;;;;;;1.97;1.57;;;9.60;33.90;;;;;;10428238;28;20237;-70
2021/03/14 14:30:05;;;;;;;1.30;0.90;;;9.40;34.30;;;;;;10401048;28;20236;-70
2021/03/14 14:35:08;;;;;;;2.77;1.17;;;9.40;34.90;;;;;;10429854;28;20251;-70
2021/03/14 14:40:12;;;;;;;1.70;1.00;;;9.40;34.90;;;;;;10407616;28;20232;-70
2021/03/14 14:45:15;;;;;;;1.53;1.20;;;9.30;35.10;;;;;;10404907;28;20236;-70
2021/03/14 14:50:17;;;;;;;3.07;1.70;;;9.20;35.20;;;;;;10409937;28;20235;-71
2021/03/14 14:55:21;;;;;;;1.60;1.17;;;9.10;35.50;;;;;;10410810;28;20232;-71
2021/03/14 15:00:24;;;;;;;1.73;1.40;;;9.10;35.50;;;;;;10415354;28;20704;-70
2021/03/14 15:05:26;;;;;;;2.37;1.70;;;9.10;35.60;;;;;;10414230;28;20759;-71
2021/03/14 15:10:30;;;;;;;3.03;2.00;;;9.10;35.60;;;;;;10400553;28;20230;-70
2021/03/14 15:15:33;;;;;;;1.90;1.70;;;9.10;36.10;;;;;;10405427;28;20573;-70
2021/03/14 15:20:35;;;;;;;3.53;1.83;;;9.10;36.40;;;;;;10420395;28;20227;-70
2021/03/14 15:25:39;;;;;;;1.60;1.30;;;9.10;36.30;;;;;;10427728;28;20224;-71
2021/03/14 15:30:41;;;;;;;2.10;1.37;;;9.20;36.40;;;;;;10410025;28;20231;-70
2021/03/14 15:35:43;;;;;;;2.73;1.77;;;9.20;36.40;;;;;;10424822;28;20221;-71
2021/03/14 15:40:47;;;;;;;2.20;1.10;;;9.30;36.40;;;;;;10426900;28;20225;-71
2021/03/14 15:45:50;;;;;;;1.57;1.00;;;9.30;36.10;;;;;;10424977;28;20312;-71
2021/03/14 15:50:53;;;;;;;2.40;1.20;;;9.30;36.40;;;;;;10414113;28;20229;-71
2021/03/14 15:55:56;;;;;;;2.30;0.80;;;9.40;36.60;;;;;;10385505;28;20226;-71
2021/03/14 16:00:58;;;;;;;1.47;1.10;;;9.50;35.90;;;;;;10389569;28;20253;-71
2021/03/14 16:06:00;;;;;;;1.80;1.17;;;9.60;35.10;;;;;;10412233;28;20312;-70
2021/03/14 16:11:03;;;;;;;3.47;1.90;;;9.70;34.60;;;;;;10409574;28;20225;-72
2021/03/14 16:16:06;;;;;;;1.63;1.10;;;9.70;34.60;;;;;;10422346;28;20226;-72
2021/03/14 16:21:09;;;;;;;1.93;1.50;;;9.70;34.50;;;;;;10423084;28;20316;-72
2021/03/14 16:26:12;;;;;;;2.30;1.30;;;9.60;34.50;;;;;;10409910;28;20237;-72
2021/03/14 16:31:15;;;;;;;1.43;1.20;;;9.60;34.50;;;;;;10418117;28;20238;-73
2021/03/14 16:36:17;;;;;;;2.53;1.40;;;9.60;34.60;;;;;;10401174;28;20226;-73
2021/03/14 16:41:20;;;;;;;2.33;1.50;;;9.50;34.70;;;;;;10421064;28;20226;-72
2021/03/14 16:46:22;;;;;;;3.60;2.47;;;9.60;34.50;;;;;;10418373;28;20228;-72
2021/03/14 16:51:25;;;;;;;1.53;1.40;;;9.60;34.50;;;;;;10414367;28;20239;-72
2021/03/14 16:56:28;;;;;;;1.50;1.40;;;9.60;34.30;;;;;;10408288;28;21057;-72
2021/03/14 17:01:30;;;;;;;2.10;1.30;;;9.60;34.00;;;;;;10402558;28;20229;-72
2021/03/14 17:06:33;;;;;;;2.87;2.40;;;9.50;34.00;;;;;;10437373;28;20310;-71
2021/03/14 17:11:36;;;;;;;1.20;1.00;;;9.40;34.10;;;;;;10435517;28;20229;-72
2021/03/14 17:16:39;;;;;;;1.00;0.80;;;9.30;34.30;;;;;;10423921;28;20224;-72
2021/03/14 17:21:41;;;;;;;2.27;1.50;;;9.10;34.10;;;;;;10395950;28;20312;-72
2021/03/14 17:26:45;;;;;;;1.03;0.80;;;9.00;34.40;;;;;;10425274;28;20237;-72
2021/03/14 17:31:47;;;;;;;2.93;1.93;;;8.90;34.70;;;;;;10406087;28;20326;-72
2021/03/14 17:36:49;;;;;;;1.10;0.93;;;8.80;34.70;;;;;;10406356;28;20218;-72
2021/03/14 17:41:53;;;;;;;2.67;1.47;;;8.60;34.90;;;;;;10419477;28;20230;-72
2021/03/14 17:46:55;;;;;;;1.07;0.97;;;8.50;35.30;;;;;;10414439;28;20214;-72
2021/03/14 17:51:58;;;;;;;2.40;1.90;;;8.40;35.30;;;;;;10420579;28;20717;-72
2021/03/14 17:57:01;;;;;;;3.30;1.80;;;8.20;35.30;;;;;;10413755;28;20230;-71
2021/03/14 18:02:03;;;;;;;1.53;1.27;;;8.20;35.70;;;;;;10411300;28;20234;-72
2021/03/14 18:07:06;;;;;;;2.53;1.10;;;8.10;35.60;;;;;;10428927;28;20235;-72
2021/03/14 18:12:09;;;;;;;1.83;1.47;;;8.10;35.70;;;;;;10389491;28;20839;-71
2021/03/14 18:17:13;;;;;;;2.17;1.60;;;8.10;35.70;;;;;;10405136;28;20250;-72
2021/03/14 18:22:19;;;;;;;4.17;3.10;;;8.00;35.50;;;;;;10423382;28;20268;-72
2021/03/14 18:27:22;;;;;;;2.73;2.30;;;7.80;35.70;;;;;;10410628;28;20238;-72
2021/03/14 18:32:25;;;;;;;3.50;3.20;;;7.70;36.00;;;;;;10416091;28;20233;-72
2021/03/14 18:37:27;;;;;;;3.40;2.77;;;7.60;36.00;;;;;;10411942;28;20488;-71
2021/03/14 18:42:30;;;;;;;4.37;3.97;;;7.50;36.10;;;;;;10405212;28;20527;-72
2021/03/14 18:47:32;;;;;;;3.10;2.53;;;7.50;36.40;;;;;;10425021;28;20255;-72
2021/03/14 18:52:35;;;;;;;3.10;2.00;;;7.30;36.20;;;;;;10397319;28;20233;-72
2021/03/14 18:57:38;;;;;;;2.17;1.97;;;7.20;36.50;;;;;;10402940;28;20230;-73
2021/03/14 19:02:40;;;;;;;1.63;1.43;;;7.20;36.80;;;;;;10412350;28;20249;-72
2021/03/14 19:07:44;;;;;;;1.40;1.30;;;7.20;36.60;;;;;;10406119;28;20636;-72
2021/03/14 19:12:47;;;;;;;1.23;1.03;;;7.10;36.70;;;;;;10417330;28;20728;-72
2021/03/14 19:17:49;;;;;;;1.83;1.30;;;7.20;37.00;;;;;;10403315;28;20229;-72
2021/03/14 19:22:55;;;;;;;1.50;1.30;;;7.10;36.90;;;;;;10421344;28;20600;-72
2021/03/14 19:27:58;;;;;;;1.50;1.30;;;7.10;37.20;;;;;;10427821;28;20217;-72
2021/03/14 19:33:01;;;;;;;1.87;1.40;;;7.10;37.30;;;;;;10381964;28;20555;-72
2021/03/14 19:38:03;;;;;;;1.63;1.37;;;7.20;38.10;;;;;;10386548;28;20234;-72
2021/03/14 19:43:07;;;;;;;1.53;1.20;;;7.20;37.40;;;;;;10390112;28;20226;-72
2021/03/14 19:48:10;;;;;;;1.13;1.03;;;7.20;37.60;;;;;;10396273;28;20224;-73
2021/03/14 19:53:13;;;;;;;1.10;1.10;;;7.20;37.50;;;;;;10412929;28;20226;-72
2021/03/14 19:58:16;;;;;;;1.10;1.00;;;7.20;37.40;;;;;;10409864;28;20221;-73
2021/03/14 20:03:18;;;;;;;1.23;1.10;;;7.20;37.50;;;;;;10417506;28;20327;-73
2021/03/14 20:08:21;;;;;;;0.90;0.90;;;7.10;37.30;;;;;;10404923;28;20236;-73
2021/03/14 20:13:25;;;;;;;0.93;0.93;;;7.10;37.60;;;;;;10411144;28;20568;-73
2021/03/14 20:18:27;;;;;;;1.77;1.03;;;7.00;37.80;;;;;;10419650;28;20245;-73
2021/03/14 20:23:29;;;;;;;1.30;1.20;;;7.00;38.40;;;;;;10397208;28;20700;-73
2021/03/14 20:28:32;;;;;;;1.23;1.20;;;7.00;37.60;;;;;;10415380;28;20229;-73
2021/03/14 20:33:35;;;;;;;1.27;1.17;;;7.00;37.90;;;;;;10390382;28;20316;-74
2021/03/14 20:38:38;;;;;;;1.00;1.00;;;7.00;37.60;;;;;;10414324;28;20287;-72
2021/03/14 20:43:41;;;;;;;1.10;1.00;;;7.00;37.80;;;;;;10405796;28;20226;-73
2021/03/14 20:48:43;;;;;;;1.00;1.00;;;7.00;37.90;;;;;;10407546;28;20221;-73
2021/03/14 20:53:46;;;;;;;1.27;1.17;;;7.00;37.60;;;;;;10428334;28;20233;-73
2021/03/14 20:58:49;;;;;;;1.30;1.30;;;7.00;37.70;;;;;;10425512;28;20221;-73
2021/03/14 21:03:51;;;;;;;1.10;1.10;;;7.00;38.00;;;;;;10422007;28;20316;-73
2021/03/14 21:08:53;;;;;;;1.50;1.40;;;7.00;37.90;;;;;;10420796;28;20234;-73
2021/03/14 21:13:57;;;;;;;1.50;1.40;;;7.10;38.00;;;;;;10435549;28;20313;-73
2021/03/14 21:18:59;;;;;;;1.70;1.60;;;7.10;38.00;;;;;;10432590;28;20709;-73
2021/03/14 21:24:01;;;;;;;1.60;1.50;;;7.10;37.80;;;;;;10440149;28;23340;-73
2021/03/14 21:29:04;;;;;;;1.73;1.63;;;7.10;37.90;;;;;;10427069;28;20313;-73
2021/03/14 21:34:07;;;;;;;1.53;1.43;;;7.10;38.10;;;;;;10437002;28;20226;-73
2021/03/14 21:39:09;;;;;;;1.93;1.83;;;7.10;38.00;;;;;;10430250;28;20310;-73
2021/03/14 21:44:12;;;;;;;2.20;2.00;;;7.10;38.10;;;;;;10418552;28;20722;-73
2021/03/14 21:49:15;;;;;;;2.20;2.00;;;7.10;38.40;;;;;;10434664;28;20316;-73
2021/03/14 21:54:17;;;;;;;2.57;2.37;;;7.10;38.30;;;;;;10437159;28;20221;-72
2021/03/14 21:59:20;;;;;;;2.83;2.63;;;7.10;38.40;;;;;;10426285;28;20309;-72
2021/03/14 22:04:22;;;;;;;2.60;2.40;;;7.10;38.50;;;;;;10448526;28;20228;-72
2021/03/14 22:09:24;;;;;;;2.50;2.30;;;7.20;38.60;;;;;;10435071;28;20720;-72
2021/03/14 22:14:27;;;;;;;2.90;2.70;;;7.20;38.40;;;;;;10443818;28;20608;-72
2021/03/14 22:19:29;;;;;;;2.70;2.50;;;7.20;38.60;;;;;;10430192;28;20247;-72
2021/03/14 22:24:31;;;;;;;2.80;2.60;;;7.20;38.60;;;;;;10440058;28;20617;-71
2021/03/14 22:29:34;;;;;;;2.80;2.60;;;7.20;38.60;;;;;;10444787;28;20229;-71
2021/03/14 22:34:38;;;;;;;2.87;2.67;;;7.20;38.60;;;;;;10422878;28;20229;-72
2021/03/14 22:39:40;;;;;;;3.00;2.80;;;7.30;38.70;;;;;;10430133;28;20222;-71
2021/03/14 22:44:43;;;;;;;3.40;3.20;;;7.30;38.50;;;;;;10400822;28;20234;-72
2021/03/14 22:49:45;;;;;;;3.00;2.80;;;7.30;38.70;;;;;;10426072;28;20229;-72
2021/03/14 22:54:48;;;;;;;3.40;3.20;;;7.30;38.70;;;;;;10424014;28;20256;-72
2021/03/14 22:59:53;;;;;;;3.97;3.67;;;7.40;38.80;;;;;;10426183;28;20232;-72
2021/03/14 23:05:00;;;;;;;3.60;3.30;;;7.40;38.80;;;;;;10416085;28;20705;-72
2021/03/14 23:10:11;;;;;;;3.60;3.37;;;7.40;38.70;;;;;;10415466;28;20598;-72
2021/03/14 23:15:17;;;;;;;3.80;3.50;;;7.40;38.80;;;;;;10424285;28;20236;-71
2021/03/14 23:20:19;;;;;;;4.00;3.70;;;7.30;38.70;;;;;;10416684;28;20232;-72
2021/03/14 23:25:23;;;;;;;3.90;3.60;;;7.30;38.70;;;;;;10430976;28;20232;-72
2021/03/14 23:30:29;;;;;;;4.03;3.73;;;7.30;38.70;;;;;;10410770;28;20233;-72
2021/03/14 23:35:32;;;;;;;3.77;3.47;;;7.30;38.80;;;;;;10419539;28;20232;-72
2021/03/14 23:40:35;;;;;;;3.53;3.30;;;7.30;38.70;;;;;;10379813;28;20633;-72
2021/03/14 23:45:39;;;;;;;4.10;3.80;;;7.30;38.70;;;;;;10481279;22;20227;-77
2021/03/14 23:50:41;;;;;;;3.80;3.50;;;7.30;38.80;;;;;;10471952;28;20645;-77
2021/03/14 23:55:44;;;;;;;3.60;3.30;;;7.30;38.70;;;;;;10472913;28;20219;-77
